Skip Navigation

Christman Field Latest Observations

Switch to english unitsOther observation timesWeekly graphs

Date Time
MST
Temp
°C
RH
%
DewPt
°C
Wind
m/s
Dir
°
Gust
m/s
Dir
°
Press
hPa
Solar
W/m^2
Prec
mm
2017-11-18 00:55 0.5 48.3 -9.2 8.8 11.4 841.29 0.0 0.00
2017-11-18 00:50 0.5 48.9 -9.0 8.5 10.9 841.30 0.0 0.00
2017-11-18 00:45 0.6 49.7 -8.8 9.6 13.4 841.19 0.0 0.00
2017-11-18 00:40 0.6 50.0 -8.6 9.6 13.1 841.12 0.0 0.00
2017-11-18 00:35 0.8 49.0 -8.7 10.8 13.5 841.03 0.0 0.00
2017-11-18 00:30 1.0 47.8 -8.8 11.1 15.2 840.86 0.0 0.00
2017-11-18 00:25 1.3 45.9 -9.1 12.6 19.0 840.69 0.0 0.00
2017-11-18 00:20 1.5 44.7 -9.2 12.5 16.5 840.44 0.0 0.00
2017-11-18 00:15 1.6 43.6 -9.5 11.9 16.4 840.19 0.0 0.00
2017-11-18 00:10 1.7 44.2 -9.2 10.8 14.5 839.97 0.0 0.00
2017-11-18 00:05 1.8 42.3 -9.7 12.7 17.2 839.65 0.0 0.00
2017-11-18 00:00 2.0 41.2 -9.8 15.4 19.6 839.29 0.0 0.00
2017-11-17 23:55 2.0 39.7 -10.2 14.2 19.8 838.95 0.0 0.00
2017-11-17 23:50 2.5 41.0 -9.4 10.8 14.9 838.62 0.0 0.00
2017-11-17 23:45 2.8 34.7 -11.3 12.1 16.8 838.18 0.0 0.00
2017-11-17 23:40 2.8 33.8 -11.6 12.5 17.9 837.55 0.0 0.00
2017-11-17 23:35 2.8 34.1 -11.5 9.8 14.4 837.16 0.0 0.00
2017-11-17 23:30 2.7 35.7 -11.0 10.2 14.1 836.77 0.0 0.00
2017-11-17 23:25 2.8 36.2 -10.7 10.8 14.1 836.79 0.0 0.00
2017-11-17 23:20 2.7 35.9 -10.9 10.7 18.5 836.66 0.0 0.00
2017-11-17 23:15 2.6 37.5 -10.5 8.2 12.1 836.60 0.0 0.00
2017-11-17 23:10 2.5 40.6 -9.5 9.8 14.3 836.26 0.0 0.00
2017-11-17 23:05 2.5 41.1 -9.4 11.2 16.5 835.96 0.0 0.00
2017-11-17 23:00 2.5 40.4 -9.6 8.4 14.3 835.81 0.0 0.00
2017-11-17 22:55 2.8 41.9 -8.9 6.6 10.7 835.92 0.0 0.00
2017-11-17 22:50 2.7 42.0 -8.9 5.7 11.1 835.95 0.0 0.00
2017-11-17 22:45 2.9 41.2 -9.0 5.7 8.6 835.77 0.0 0.00
2017-11-17 22:40 3.1 40.5 -9.0 7.0 11.1 835.71 0.0 0.00
2017-11-17 22:35 3.5 39.6 -9.0 13.3 18.7 835.51 0.0 0.00
2017-11-17 22:30 3.4 38.8 -9.3 14.4 20.2 834.89 0.0 0.00